sensor_id;sensor_type;location;lat;lon;timestamp;P1;durP1;ratioP1;P2;durP2;ratioP2
13319;SDS011;59599;47.608;12.190;2023-04-03T04:02:34;8.00;;;7.20;;
13319;SDS011;59599;47.608;12.190;2023-04-03T04:05:00;8.00;;;7.17;;
13319;SDS011;59599;47.608;12.190;2023-04-03T04:07:26;7.80;;;7.00;;
13319;SDS011;59599;47.608;12.190;2023-04-03T04:09:53;8.17;;;7.37;;
13319;SDS011;59599;47.608;12.190;2023-04-03T04:12:19;8.67;;;7.83;;
13319;SDS011;59599;47.608;12.190;2023-04-03T04:14:45;8.23;;;7.43;;
13319;SDS011;59599;47.608;12.190;2023-04-03T04:17:12;7.87;;;7.07;;
13319;SDS011;59599;47.608;12.190;2023-04-03T04:19:38;8.17;;;7.37;;
13319;SDS011;59599;47.608;12.190;2023-04-03T04:22:03;8.40;;;7.60;;
13319;SDS011;59599;47.608;12.190;2023-04-03T04:24:29;8.50;;;7.60;;
13319;SDS011;59599;47.608;12.190;2023-04-03T04:26:55;8.67;;;7.77;;
13319;SDS011;59599;47.608;12.190;2023-04-03T04:29:21;8.70;;;7.80;;
13319;SDS011;59599;47.608;12.190;2023-04-03T04:31:46;9.37;;;7.83;;
13319;SDS011;59599;47.608;12.190;2023-04-03T04:34:12;9.10;;;7.77;;
13319;SDS011;59599;47.608;12.190;2023-04-03T04:36:38;8.73;;;7.90;;
13319;SDS011;59599;47.608;12.190;2023-04-03T04:39:04;8.37;;;7.47;;
13319;SDS011;59599;47.608;12.190;2023-04-03T04:41:30;8.57;;;7.73;;
13319;SDS011;59599;47.608;12.190;2023-04-03T04:43:56;9.03;;;8.13;;
13319;SDS011;59599;47.608;12.190;2023-04-03T04:46:22;7.93;;;7.23;;
13319;SDS011;59599;47.608;12.190;2023-04-03T04:48:47;9.37;;;7.53;;
13319;SDS011;59599;47.608;12.190;2023-04-03T04:51:13;8.97;;;8.07;;
13319;SDS011;59599;47.608;12.190;2023-04-03T04:53:39;11.17;;;8.30;;
13319;SDS011;59599;47.608;12.190;2023-04-03T04:56:05;8.33;;;7.50;;
13319;SDS011;59599;47.608;12.190;2023-04-03T04:58:31;8.90;;;8.00;;
13319;SDS011;59599;47.608;12.190;2023-04-03T05:01:01;11.00;;;8.60;;
13319;SDS011;59599;47.608;12.190;2023-04-03T05:03:27;9.53;;;8.53;;
13319;SDS011;59599;47.608;12.190;2023-04-03T05:05:53;9.40;;;8.37;;
13319;SDS011;59599;47.608;12.190;2023-04-03T05:08:19;8.97;;;8.07;;
13319;SDS011;59599;47.608;12.190;2023-04-03T05:10:45;9.70;;;8.70;;
13319;SDS011;59599;47.608;12.190;2023-04-03T05:13:11;9.17;;;8.27;;
13319;SDS011;59599;47.608;12.190;2023-04-03T05:15:37;10.33;;;9.23;;
13319;SDS011;59599;47.608;12.190;2023-04-03T05:18:03;9.87;;;8.87;;
13319;SDS011;59599;47.608;12.190;2023-04-03T05:20:30;10.00;;;8.63;;
13319;SDS011;59599;47.608;12.190;2023-04-03T05:22:56;11.07;;;8.93;;
13319;SDS011;59599;47.608;12.190;2023-04-03T05:25:21;9.40;;;8.50;;
13319;SDS011;59599;47.608;12.190;2023-04-03T05:27:47;9.70;;;8.77;;
13319;SDS011;59599;47.608;12.190;2023-04-03T05:30:13;9.73;;;8.77;;
13319;SDS011;59599;47.608;12.190;2023-04-03T05:32:39;9.37;;;8.20;;
13319;SDS011;59599;47.608;12.190;2023-04-03T05:35:05;9.57;;;8.57;;
13319;SDS011;59599;47.608;12.190;2023-04-03T05:37:32;10.00;;;8.97;;
13319;SDS011;59599;47.608;12.190;2023-04-03T05:39:58;10.87;;;8.53;;
13319;SDS011;59599;47.608;12.190;2023-04-03T05:42:24;9.63;;;8.63;;
13319;SDS011;59599;47.608;12.190;2023-04-03T05:44:49;9.07;;;8.20;;
13319;SDS011;59599;47.608;12.190;2023-04-03T05:47:17;8.77;;;7.90;;
13319;SDS011;59599;47.608;12.190;2023-04-03T05:49:43;8.87;;;7.97;;
13319;SDS011;59599;47.608;12.190;2023-04-03T05:52:23;8.93;;;8.03;;
13319;SDS011;59599;47.608;12.190;2023-04-03T05:54:52;9.13;;;7.67;;
13319;SDS011;59599;47.608;12.190;2023-04-03T05:57:18;9.60;;;7.60;;
13319;SDS011;59599;47.608;12.190;2023-04-03T05:59:44;8.77;;;7.87;;
13319;SDS011;59599;47.608;12.190;2023-04-03T06:02:11;8.53;;;7.67;;
13319;SDS011;59599;47.608;12.190;2023-04-03T06:04:38;8.20;;;7.30;;
13319;SDS011;59599;47.608;12.190;2023-04-03T06:07:04;8.00;;;7.20;;
13319;SDS011;59599;47.608;12.190;2023-04-03T06:09:31;8.13;;;6.80;;
13319;SDS011;59599;47.608;12.190;2023-04-03T06:11:57;7.63;;;6.93;;
13319;SDS011;59599;47.608;12.190;2023-04-03T06:14:23;8.00;;;6.67;;
13319;SDS011;59599;47.608;12.190;2023-04-03T06:16:50;8.87;;;7.00;;
13319;SDS011;59599;47.608;12.190;2023-04-03T06:19:16;8.70;;;7.33;;
13319;SDS011;59599;47.608;12.190;2023-04-03T06:21:42;8.00;;;7.00;;
13319;SDS011;59599;47.608;12.190;2023-04-03T06:24:07;8.90;;;7.00;;
13319;SDS011;59599;47.608;12.190;2023-04-03T06:26:33;7.47;;;6.57;;
13319;SDS011;59599;47.608;12.190;2023-04-03T06:28:59;7.33;;;6.63;;
13319;SDS011;59599;47.608;12.190;2023-04-03T06:31:25;9.67;;;7.20;;
13319;SDS011;59599;47.608;12.190;2023-04-03T06:33:51;8.43;;;6.80;;
13319;SDS011;59599;47.608;12.190;2023-04-03T06:36:20;7.97;;;7.20;;
13319;SDS011;59599;47.608;12.190;2023-04-03T06:38:46;7.83;;;6.43;;
13319;SDS011;59599;47.608;12.190;2023-04-03T06:41:12;7.60;;;6.83;;
13319;SDS011;59599;47.608;12.190;2023-04-03T06:43:38;7.50;;;6.80;;
13319;SDS011;59599;47.608;12.190;2023-04-03T06:46:04;7.87;;;7.07;;
13319;SDS011;59599;47.608;12.190;2023-04-03T06:48:30;9.33;;;7.03;;
13319;SDS011;59599;47.608;12.190;2023-04-03T06:50:56;7.40;;;6.60;;
13319;SDS011;59599;47.608;12.190;2023-04-03T06:53:21;7.37;;;6.60;;
13319;SDS011;59599;47.608;12.190;2023-04-03T06:55:47;8.00;;;7.20;;
13319;SDS011;59599;47.608;12.190;2023-04-03T06:58:13;9.87;;;8.50;;
13319;SDS011;59599;47.608;12.190;2023-04-03T07:00:40;7.30;;;6.60;;
13319;SDS011;59599;47.608;12.190;2023-04-03T07:03:06;7.63;;;6.83;;
13319;SDS011;59599;47.608;12.190;2023-04-03T07:05:31;6.63;;;6.03;;
13319;SDS011;59599;47.608;12.190;2023-04-03T07:07:57;7.27;;;6.57;;
13319;SDS011;59599;47.608;12.190;2023-04-03T07:10:23;7.20;;;6.50;;
13319;SDS011;59599;47.608;12.190;2023-04-03T07:12:49;7.27;;;6.57;;
13319;SDS011;59599;47.608;12.190;2023-04-03T07:15:16;7.27;;;6.57;;
13319;SDS011;59599;47.608;12.190;2023-04-03T07:17:41;6.60;;;6.00;;
13319;SDS011;59599;47.608;12.190;2023-04-03T07:20:08;7.13;;;6.43;;
13319;SDS011;59599;47.608;12.190;2023-04-03T07:22:34;6.47;;;5.87;;
13319;SDS011;59599;47.608;12.190;2023-04-03T07:24:59;7.17;;;6.13;;
13319;SDS011;59599;47.608;12.190;2023-04-03T07:27:25;5.60;;;5.10;;
13319;SDS011;59599;47.608;12.190;2023-04-03T07:29:51;7.03;;;5.63;;
13319;SDS011;59599;47.608;12.190;2023-04-03T07:32:17;6.67;;;6.00;;
13319;SDS011;59599;47.608;12.190;2023-04-03T07:34:43;6.77;;;6.07;;
13319;SDS011;59599;47.608;12.190;2023-04-03T07:37:09;6.63;;;6.00;;
13319;SDS011;59599;47.608;12.190;2023-04-03T07:39:35;7.77;;;6.20;;
13319;SDS011;59599;47.608;12.190;2023-04-03T07:42:01;6.00;;;5.40;;
13319;SDS011;59599;47.608;12.190;2023-04-03T07:44:27;5.83;;;5.33;;
13319;SDS011;59599;47.608;12.190;2023-04-03T07:46:53;5.60;;;5.10;;
13319;SDS011;59599;47.608;12.190;2023-04-03T07:49:20;5.93;;;5.33;;
13319;SDS011;59599;47.608;12.190;2023-04-03T07:51:49;5.57;;;4.97;;
13319;SDS011;59599;47.608;12.190;2023-04-03T07:54:14;4.90;;;4.50;;
13319;SDS011;59599;47.608;12.190;2023-04-03T07:56:40;6.37;;;4.70;;
13319;SDS011;59599;47.608;12.190;2023-04-03T07:59:07;5.60;;;4.90;;
13319;SDS011;59599;47.608;12.190;2023-04-03T08:01:33;5.70;;;4.90;;
13319;SDS011;59599;47.608;12.190;2023-04-03T08:03:59;4.90;;;4.40;;
13319;SDS011;59599;47.608;12.190;2023-04-03T08:06:25;5.90;;;4.30;;
13319;SDS011;59599;47.608;12.190;2023-04-03T08:08:51;6.50;;;4.33;;
13319;SDS011;59599;47.608;12.190;2023-04-03T08:11:17;4.50;;;4.10;;
13319;SDS011;59599;47.608;12.190;2023-04-03T08:13:43;4.97;;;4.20;;
13319;SDS011;59599;47.608;12.190;2023-04-03T08:16:15;4.47;;;4.07;;
13319;SDS011;59599;47.608;12.190;2023-04-03T08:18:43;4.87;;;4.40;;
13319;SDS011;59599;47.608;12.190;2023-04-03T08:21:09;4.57;;;4.17;;
13319;SDS011;59599;47.608;12.190;2023-04-03T08:23:36;5.33;;;4.03;;
13319;SDS011;59599;47.608;12.190;2023-04-03T08:26:11;3.57;;;3.27;;
13319;SDS011;59599;47.608;12.190;2023-04-03T08:28:38;4.00;;;3.60;;
13319;SDS011;59599;47.608;12.190;2023-04-03T08:31:06;3.83;;;3.50;;
13319;SDS011;59599;47.608;12.190;2023-04-03T08:33:35;4.20;;;3.80;;
13319;SDS011;59599;47.608;12.190;2023-04-03T08:36:03;4.37;;;3.97;;
13319;SDS011;59599;47.608;12.190;2023-04-03T08:38:30;5.97;;;3.93;;
13319;SDS011;59599;47.608;12.190;2023-04-03T08:41:04;3.80;;;3.40;;
13319;SDS011;59599;47.608;12.190;2023-04-03T08:46:02;5.13;;;4.07;;
13319;SDS011;59599;47.608;12.190;2023-04-03T08:48:33;3.87;;;3.47;;
13319;SDS011;59599;47.608;12.190;2023-04-03T08:51:10;4.80;;;3.80;;
13319;SDS011;59599;47.608;12.190;2023-04-03T08:53:41;5.17;;;3.87;;
13319;SDS011;59599;47.608;12.190;2023-04-03T08:56:21;3.50;;;3.20;;
13319;SDS011;59599;47.608;12.190;2023-04-03T08:58:50;4.60;;;3.40;;
13319;SDS011;59599;47.608;12.190;2023-04-03T09:01:23;6.17;;;3.50;;
13319;SDS011;59599;47.608;12.190;2023-04-03T09:03:59;5.03;;;3.53;;
13319;SDS011;59599;47.608;12.190;2023-04-03T09:06:26;4.00;;;3.33;;
13319;SDS011;59599;47.608;12.190;2023-04-03T09:19:22;4.97;;;3.60;;
13319;SDS011;59599;47.608;12.190;2023-04-03T09:22:17;3.47;;;2.80;;
13319;SDS011;59599;47.608;12.190;2023-04-03T09:24:47;4.97;;;3.27;;
13319;SDS011;59599;47.608;12.190;2023-04-03T09:27:21;4.63;;;2.80;;
13319;SDS011;59599;47.608;12.190;2023-04-03T09:29:47;5.47;;;2.80;;
13319;SDS011;59599;47.608;12.190;2023-04-03T09:32:28;3.50;;;2.83;;
13319;SDS011;59599;47.608;12.190;2023-04-03T09:34:54;3.70;;;2.67;;
13319;SDS011;59599;47.608;12.190;2023-04-03T09:37:35;6.90;;;3.00;;
13319;SDS011;59599;47.608;12.190;2023-04-03T09:40:05;3.43;;;2.87;;
13319;SDS011;59599;47.608;12.190;2023-04-03T09:42:56;3.93;;;2.77;;
13319;SDS011;59599;47.608;12.190;2023-04-03T09:45:30;3.97;;;2.90;;
13319;SDS011;59599;47.608;12.190;2023-04-03T09:48:08;4.33;;;3.03;;
13319;SDS011;59599;47.608;12.190;2023-04-03T09:53:29;3.40;;;2.70;;
13319;SDS011;59599;47.608;12.190;2023-04-03T09:55:55;3.23;;;2.70;;
13319;SDS011;59599;47.608;12.190;2023-04-03T09:58:28;3.23;;;2.60;;
13319;SDS011;59599;47.608;12.190;2023-04-03T10:01:10;4.23;;;2.50;;
13319;SDS011;59599;47.608;12.190;2023-04-03T10:06:33;3.07;;;2.10;;
13319;SDS011;59599;47.608;12.190;2023-04-03T10:09:02;2.87;;;2.30;;
13319;SDS011;59599;47.608;12.190;2023-04-03T10:11:58;4.27;;;2.20;;
13319;SDS011;59599;47.608;12.190;2023-04-03T10:14:33;2.73;;;2.33;;
13319;SDS011;59599;47.608;12.190;2023-04-03T10:17:23;2.80;;;2.40;;
13319;SDS011;59599;47.608;12.190;2023-04-03T10:20:27;2.60;;;2.40;;
13319;SDS011;59599;47.608;12.190;2023-04-03T10:23:05;2.53;;;2.33;;
13319;SDS011;59599;47.608;12.190;2023-04-03T10:25:50;3.17;;;2.27;;
13319;SDS011;59599;47.608;12.190;2023-04-03T10:29:14;2.90;;;2.37;;
13319;SDS011;59599;47.608;12.190;2023-04-03T10:31:44;2.53;;;2.10;;
13319;SDS011;59599;47.608;12.190;2023-04-03T10:34:24;2.10;;;1.77;;
13319;SDS011;59599;47.608;12.190;2023-04-03T10:39:56;2.00;;;1.80;;
13319;SDS011;59599;47.608;12.190;2023-04-03T10:42:42;2.20;;;2.00;;
13319;SDS011;59599;47.608;12.190;2023-04-03T10:45:31;2.33;;;2.10;;
13319;SDS011;59599;47.608;12.190;2023-04-03T10:48:38;4.23;;;2.03;;
13319;SDS011;59599;47.608;12.190;2023-04-03T10:51:23;2.40;;;2.10;;
13319;SDS011;59599;47.608;12.190;2023-04-03T10:56:53;2.23;;;2.03;;
13319;SDS011;59599;47.608;12.190;2023-04-03T10:59:32;3.50;;;2.37;;
13319;SDS011;59599;47.608;12.190;2023-04-03T11:02:24;3.83;;;1.90;;
13319;SDS011;59599;47.608;12.190;2023-04-03T11:04:58;3.53;;;2.37;;
13319;SDS011;59599;47.608;12.190;2023-04-03T11:07:39;2.63;;;1.80;;
13319;SDS011;59599;47.608;12.190;2023-04-03T11:10:17;3.33;;;2.17;;
13319;SDS011;59599;47.608;12.190;2023-04-03T11:13:02;4.30;;;1.93;;
13319;SDS011;59599;47.608;12.190;2023-04-03T11:15:41;2.03;;;1.80;;
13319;SDS011;59599;47.608;12.190;2023-04-03T11:18:12;2.17;;;1.53;;
13319;SDS011;59599;47.608;12.190;2023-04-03T11:20:43;2.83;;;1.70;;
13319;SDS011;59599;47.608;12.190;2023-04-03T11:23:21;2.40;;;1.70;;
13319;SDS011;59599;47.608;12.190;2023-04-03T11:25:55;4.13;;;1.93;;
13319;SDS011;59599;47.608;12.190;2023-04-03T11:28:29;2.63;;;1.77;;
13319;SDS011;59599;47.608;12.190;2023-04-03T11:31:10;2.10;;;1.90;;
13319;SDS011;59599;47.608;12.190;2023-04-03T11:36:11;2.07;;;1.70;;
13319;SDS011;59599;47.608;12.190;2023-04-03T11:38:44;2.17;;;1.97;;
13319;SDS011;59599;47.608;12.190;2023-04-03T11:41:12;5.17;;;2.63;;
13319;SDS011;59599;47.608;12.190;2023-04-03T11:43:58;3.70;;;2.30;;
13319;SDS011;59599;47.608;12.190;2023-04-03T12:24:03;3.40;;;2.33;;
13319;SDS011;59599;47.608;12.190;2023-04-03T12:34:27;2.07;;;1.67;;
13319;SDS011;59599;47.608;12.190;2023-04-03T12:43:25;1.97;;;1.77;;
13319;SDS011;59599;47.608;12.190;2023-04-03T12:48:46;2.83;;;2.20;;
13319;SDS011;59599;47.608;12.190;2023-04-03T12:51:25;2.13;;;1.77;;
13319;SDS011;59599;47.608;12.190;2023-04-03T12:54:13;2.23;;;2.03;;
13319;SDS011;59599;47.608;12.190;2023-04-03T12:56:43;2.75;;;2.00;;
13319;SDS011;59599;47.608;12.190;2023-04-03T13:01:55;1.70;;;1.60;;
13319;SDS011;59599;47.608;12.190;2023-04-03T13:04:22;1.80;;;1.70;;
13319;SDS011;59599;47.608;12.190;2023-04-03T13:06:48;2.23;;;1.67;;
13319;SDS011;59599;47.608;12.190;2023-04-03T13:09:22;2.57;;;2.00;;
13319;SDS011;59599;47.608;12.190;2023-04-03T13:11:51;2.47;;;1.80;;
13319;SDS011;59599;47.608;12.190;2023-04-03T13:14:38;2.90;;;2.23;;
13319;SDS011;59599;47.608;12.190;2023-04-03T13:17:12;3.40;;;2.30;;
13319;SDS011;59599;47.608;12.190;2023-04-03T13:19:40;2.63;;;2.20;;
13319;SDS011;59599;47.608;12.190;2023-04-03T13:22:29;2.67;;;2.17;;
13319;SDS011;59599;47.608;12.190;2023-04-03T13:25:04;2.50;;;2.03;;
13319;SDS011;59599;47.608;12.190;2023-04-03T13:27:34;2.50;;;1.97;;
13319;SDS011;59599;47.608;12.190;2023-04-03T13:30:01;3.73;;;2.00;;
13319;SDS011;59599;47.608;12.190;2023-04-03T13:32:28;2.23;;;2.00;;
13319;SDS011;59599;47.608;12.190;2023-04-03T13:34:55;1.77;;;1.67;;
13319;SDS011;59599;47.608;12.190;2023-04-03T13:37:25;2.37;;;2.00;;
13319;SDS011;59599;47.608;12.190;2023-04-03T13:42:34;2.53;;;2.13;;
13319;SDS011;59599;47.608;12.190;2023-04-03T13:47:43;3.60;;;2.53;;
13319;SDS011;59599;47.608;12.190;2023-04-03T13:50:14;2.27;;;1.90;;
13319;SDS011;59599;47.608;12.190;2023-04-03T13:57:53;1.77;;;1.60;;
13319;SDS011;59599;47.608;12.190;2023-04-03T14:00:33;2.13;;;1.93;;
13319;SDS011;59599;47.608;12.190;2023-04-03T14:03:20;2.73;;;1.90;;
13319;SDS011;59599;47.608;12.190;2023-04-03T14:05:58;2.93;;;1.70;;
13319;SDS011;59599;47.608;12.190;2023-04-03T14:08:24;2.83;;;2.10;;
13319;SDS011;59599;47.608;12.190;2023-04-03T14:10:50;2.20;;;1.80;;
13319;SDS011;59599;47.608;12.190;2023-04-03T14:13:17;3.27;;;1.90;;
13319;SDS011;59599;47.608;12.190;2023-04-03T14:15:44;2.67;;;1.93;;
13319;SDS011;59599;47.608;12.190;2023-04-03T14:18:13;3.42;;;1.90;;
13319;SDS011;59599;47.608;12.190;2023-04-03T14:20:40;3.47;;;1.87;;
13319;SDS011;59599;47.608;12.190;2023-04-03T14:23:06;2.20;;;1.97;;
13319;SDS011;59599;47.608;12.190;2023-04-03T14:25:31;2.33;;;2.13;;
13319;SDS011;59599;47.608;12.190;2023-04-03T14:27:58;2.43;;;2.20;;
13319;SDS011;59599;47.608;12.190;2023-04-03T14:30:32;3.13;;;1.67;;
13319;SDS011;59599;47.608;12.190;2023-04-03T14:32:58;2.63;;;2.10;;
13319;SDS011;59599;47.608;12.190;2023-04-03T14:35:25;2.90;;;1.67;;
13319;SDS011;59599;47.608;12.190;2023-04-03T14:37:51;6.00;;;2.23;;
13319;SDS011;59599;47.608;12.190;2023-04-03T14:40:20;2.63;;;1.93;;
13319;SDS011;59599;47.608;12.190;2023-04-03T14:42:48;2.20;;;1.60;;
13319;SDS011;59599;47.608;12.190;2023-04-03T14:45:14;2.40;;;1.73;;
13319;SDS011;59599;47.608;12.190;2023-04-03T14:47:42;2.87;;;2.20;;
13319;SDS011;59599;47.608;12.190;2023-04-03T14:50:14;3.10;;;2.33;;
13319;SDS011;59599;47.608;12.190;2023-04-03T14:52:42;3.63;;;2.13;;
13319;SDS011;59599;47.608;12.190;2023-04-03T14:55:08;2.87;;;1.90;;
13319;SDS011;59599;47.608;12.190;2023-04-03T14:57:33;3.40;;;2.30;;
13319;SDS011;59599;47.608;12.190;2023-04-03T14:59:59;2.17;;;1.93;;
13319;SDS011;59599;47.608;12.190;2023-04-03T15:02:28;2.30;;;2.00;;
13319;SDS011;59599;47.608;12.190;2023-04-03T15:05:02;2.33;;;1.90;;
13319;SDS011;59599;47.608;12.190;2023-04-03T15:07:30;2.80;;;2.20;;
13319;SDS011;59599;47.608;12.190;2023-04-03T15:10:05;2.63;;;2.20;;
13319;SDS011;59599;47.608;12.190;2023-04-03T15:12:43;2.63;;;2.17;;
13319;SDS011;59599;47.608;12.190;2023-04-03T15:15:10;4.97;;;2.77;;
13319;SDS011;59599;47.608;12.190;2023-04-03T15:17:36;4.83;;;2.90;;
13319;SDS011;59599;47.608;12.190;2023-04-03T15:20:02;2.87;;;2.23;;
13319;SDS011;59599;47.608;12.190;2023-04-03T15:22:31;2.83;;;1.73;;
13319;SDS011;59599;47.608;12.190;2023-04-03T15:24:56;3.40;;;1.97;;
13319;SDS011;59599;47.608;12.190;2023-04-03T15:27:22;3.30;;;2.23;;
13319;SDS011;59599;47.608;12.190;2023-04-03T15:29:48;2.77;;;1.70;;
13319;SDS011;59599;47.608;12.190;2023-04-03T15:32:13;2.13;;;1.90;;
13319;SDS011;59599;47.608;12.190;2023-04-03T15:34:39;3.17;;;2.13;;
13319;SDS011;59599;47.608;12.190;2023-04-03T15:37:05;3.10;;;2.20;;
13319;SDS011;59599;47.608;12.190;2023-04-03T15:39:31;3.10;;;2.00;;
13319;SDS011;59599;47.608;12.190;2023-04-03T15:41:57;3.30;;;1.87;;
13319;SDS011;59599;47.608;12.190;2023-04-03T15:44:30;1.90;;;1.80;;
13319;SDS011;59599;47.608;12.190;2023-04-03T15:46:57;4.30;;;2.27;;
13319;SDS011;59599;47.608;12.190;2023-04-03T15:49:23;2.70;;;2.17;;
13319;SDS011;59599;47.608;12.190;2023-04-03T15:51:49;5.20;;;3.07;;
13319;SDS011;59599;47.608;12.190;2023-04-03T15:54:15;7.53;;;4.83;;
13319;SDS011;59599;47.608;12.190;2023-04-03T15:56:41;4.27;;;2.90;;
13319;SDS011;59599;47.608;12.190;2023-04-03T15:59:06;5.97;;;4.13;;
13319;SDS011;59599;47.608;12.190;2023-04-03T16:01:32;4.57;;;3.00;;
13319;SDS011;59599;47.608;12.190;2023-04-03T16:03:58;2.57;;;2.13;;
13319;SDS011;59599;47.608;12.190;2023-04-03T16:06:24;2.70;;;2.40;;
13319;SDS011;59599;47.608;12.190;2023-04-03T16:08:50;5.20;;;2.57;;
13319;SDS011;59599;47.608;12.190;2023-04-03T16:11:21;4.87;;;2.60;;
13319;SDS011;59599;47.608;12.190;2023-04-03T16:13:47;3.60;;;2.67;;
13319;SDS011;59599;47.608;12.190;2023-04-03T16:16:12;3.27;;;2.50;;
13319;SDS011;59599;47.608;12.190;2023-04-03T16:18:38;3.60;;;2.37;;
13319;SDS011;59599;47.608;12.190;2023-04-03T16:21:05;5.23;;;3.00;;
13319;SDS011;59599;47.608;12.190;2023-04-03T16:23:31;3.00;;;2.50;;
13319;SDS011;59599;47.608;12.190;2023-04-03T16:25:57;3.23;;;2.57;;
13319;SDS011;59599;47.608;12.190;2023-04-03T16:28:23;3.07;;;2.40;;
13319;SDS011;59599;47.608;12.190;2023-04-03T16:30:49;3.47;;;2.60;;
13319;SDS011;59599;47.608;12.190;2023-04-03T16:33:15;3.23;;;2.80;;
13319;SDS011;59599;47.608;12.190;2023-04-03T16:35:42;3.37;;;2.73;;
13319;SDS011;59599;47.608;12.190;2023-04-03T16:38:08;2.67;;;2.20;;
13319;SDS011;59599;47.608;12.190;2023-04-03T16:40:35;5.33;;;2.90;;
13319;SDS011;59599;47.608;12.190;2023-04-03T16:43:01;5.10;;;2.93;;
13319;SDS011;59599;47.608;12.190;2023-04-03T16:45:27;3.47;;;2.43;;
13319;SDS011;59599;47.608;12.190;2023-04-03T16:47:52;3.87;;;2.60;;
13319;SDS011;59599;47.608;12.190;2023-04-03T16:50:18;4.07;;;3.00;;
13319;SDS011;59599;47.608;12.190;2023-04-03T16:52:45;5.07;;;3.50;;
13319;SDS011;59599;47.608;12.190;2023-04-03T16:55:11;4.60;;;2.90;;
13319;SDS011;59599;47.608;12.190;2023-04-03T16:57:37;3.93;;;2.67;;
13319;SDS011;59599;47.608;12.190;2023-04-03T17:00:02;4.80;;;2.93;;
13319;SDS011;59599;47.608;12.190;2023-04-03T17:02:28;4.93;;;2.93;;
13319;SDS011;59599;47.608;12.190;2023-04-03T17:04:55;4.23;;;2.67;;
13319;SDS011;59599;47.608;12.190;2023-04-03T17:07:20;5.67;;;2.87;;
13319;SDS011;59599;47.608;12.190;2023-04-03T17:09:47;3.60;;;3.07;;
13319;SDS011;59599;47.608;12.190;2023-04-03T17:12:13;3.60;;;2.73;;
13319;SDS011;59599;47.608;12.190;2023-04-03T17:14:39;3.20;;;2.63;;
13319;SDS011;59599;47.608;12.190;2023-04-03T17:17:05;3.30;;;2.87;;
13319;SDS011;59599;47.608;12.190;2023-04-03T17:19:32;3.67;;;2.80;;
13319;SDS011;59599;47.608;12.190;2023-04-03T17:21:58;3.23;;;2.57;;
13319;SDS011;59599;47.608;12.190;2023-04-03T17:24:24;2.73;;;2.27;;
13319;SDS011;59599;47.608;12.190;2023-04-03T17:26:50;3.90;;;2.67;;
13319;SDS011;59599;47.608;12.190;2023-04-03T17:29:17;4.37;;;2.77;;
13319;SDS011;59599;47.608;12.190;2023-04-03T17:31:42;2.73;;;2.27;;
13319;SDS011;59599;47.608;12.190;2023-04-03T17:34:08;3.20;;;2.67;;
13319;SDS011;59599;47.608;12.190;2023-04-03T17:36:36;5.17;;;3.10;;
13319;SDS011;59599;47.608;12.190;2023-04-03T17:39:03;4.90;;;3.63;;
13319;SDS011;59599;47.608;12.190;2023-04-03T17:41:29;3.43;;;2.60;;
13319;SDS011;59599;47.608;12.190;2023-04-03T17:43:55;2.13;;;1.90;;
13319;SDS011;59599;47.608;12.190;2023-04-03T17:46:21;2.70;;;2.00;;
13319;SDS011;59599;47.608;12.190;2023-04-03T17:48:48;3.80;;;2.00;;
13319;SDS011;59599;47.608;12.190;2023-04-03T17:51:16;1.70;;;1.60;;
13319;SDS011;59599;47.608;12.190;2023-04-03T17:53:46;2.63;;;1.57;;
13319;SDS011;59599;47.608;12.190;2023-04-03T17:56:13;3.20;;;2.07;;
13319;SDS011;59599;47.608;12.190;2023-04-03T17:58:41;3.43;;;2.80;;
13319;SDS011;59599;47.608;12.190;2023-04-03T18:01:08;3.93;;;2.60;;
13319;SDS011;59599;47.608;12.190;2023-04-03T18:03:39;3.57;;;2.03;;
13319;SDS011;59599;47.608;12.190;2023-04-03T18:06:05;5.07;;;1.87;;
13319;SDS011;59599;47.608;12.190;2023-04-03T18:08:35;2.57;;;1.60;;
13319;SDS011;59599;47.608;12.190;2023-04-03T18:11:03;2.70;;;1.80;;
13319;SDS011;59599;47.608;12.190;2023-04-03T18:13:29;2.77;;;2.00;;
13319;SDS011;59599;47.608;12.190;2023-04-03T18:15:56;4.00;;;1.70;;
13319;SDS011;59599;47.608;12.190;2023-04-03T18:18:22;3.00;;;1.80;;
13319;SDS011;59599;47.608;12.190;2023-04-03T18:20:48;2.63;;;1.87;;
13319;SDS011;59599;47.608;12.190;2023-04-03T18:23:15;3.27;;;1.80;;
13319;SDS011;59599;47.608;12.190;2023-04-03T18:25:41;3.50;;;1.73;;
13319;SDS011;59599;47.608;12.190;2023-04-03T18:28:08;2.07;;;1.80;;
13319;SDS011;59599;47.608;12.190;2023-04-03T18:30:33;2.97;;;2.00;;
13319;SDS011;59599;47.608;12.190;2023-04-03T18:32:59;4.60;;;1.50;;
13319;SDS011;59599;47.608;12.190;2023-04-03T18:35:25;2.87;;;1.60;;
13319;SDS011;59599;47.608;12.190;2023-04-03T18:37:51;3.20;;;1.50;;
13319;SDS011;59599;47.608;12.190;2023-04-03T18:40:16;3.30;;;1.73;;
13319;SDS011;59599;47.608;12.190;2023-04-03T18:42:42;2.23;;;1.90;;
13319;SDS011;59599;47.608;12.190;2023-04-03T18:45:10;2.53;;;1.47;;
13319;SDS011;59599;47.608;12.190;2023-04-03T18:47:36;3.33;;;1.60;;
13319;SDS011;59599;47.608;12.190;2023-04-03T18:50:03;6.57;;;2.10;;
13319;SDS011;59599;47.608;12.190;2023-04-03T18:52:29;3.50;;;1.80;;
13319;SDS011;59599;47.608;12.190;2023-04-03T18:54:55;2.43;;;1.60;;
13319;SDS011;59599;47.608;12.190;2023-04-03T18:57:21;2.73;;;2.03;;
13319;SDS011;59599;47.608;12.190;2023-04-03T18:59:47;4.50;;;4.07;;
13319;SDS011;59599;47.608;12.190;2023-04-03T19:02:13;3.33;;;2.40;;
13319;SDS011;59599;47.608;12.190;2023-04-03T19:04:40;2.93;;;2.10;;
13319;SDS011;59599;47.608;12.190;2023-04-03T19:07:06;2.50;;;2.10;;
13319;SDS011;59599;47.608;12.190;2023-04-03T19:09:34;2.23;;;1.93;;
13319;SDS011;59599;47.608;12.190;2023-04-03T19:11:59;4.30;;;1.77;;
13319;SDS011;59599;47.608;12.190;2023-04-03T19:14:26;4.53;;;1.80;;
13319;SDS011;59599;47.608;12.190;2023-04-03T19:16:51;3.43;;;2.20;;
13319;SDS011;59599;47.608;12.190;2023-04-03T19:19:18;4.20;;;2.07;;
13319;SDS011;59599;47.608;12.190;2023-04-03T19:21:44;3.53;;;1.97;;
13319;SDS011;59599;47.608;12.190;2023-04-03T19:24:10;3.73;;;1.93;;
13319;SDS011;59599;47.608;12.190;2023-04-03T19:26:36;3.00;;;2.10;;
13319;SDS011;59599;47.608;12.190;2023-04-03T19:29:03;4.17;;;2.00;;
13319;SDS011;59599;47.608;12.190;2023-04-03T19:31:28;2.47;;;2.07;;
13319;SDS011;59599;47.608;12.190;2023-04-03T19:33:55;3.90;;;2.40;;
13319;SDS011;59599;47.608;12.190;2023-04-03T19:36:21;2.97;;;2.10;;
13319;SDS011;59599;47.608;12.190;2023-04-03T19:38:47;4.80;;;2.80;;
13319;SDS011;59599;47.608;12.190;2023-04-03T19:41:19;4.93;;;2.83;;
13319;SDS011;59599;47.608;12.190;2023-04-03T19:43:50;4.57;;;2.97;;
13319;SDS011;59599;47.608;12.190;2023-04-03T19:46:17;3.40;;;2.37;;
13319;SDS011;59599;47.608;12.190;2023-04-03T19:48:43;6.47;;;3.10;;
13319;SDS011;59599;47.608;12.190;2023-04-03T19:51:11;3.13;;;2.43;;
13319;SDS011;59599;47.608;12.190;2023-04-03T19:53:37;2.60;;;2.30;;
13319;SDS011;59599;47.608;12.190;2023-04-03T19:56:02;3.97;;;2.50;;
13319;SDS011;59599;47.608;12.190;2023-04-03T19:58:28;3.50;;;2.80;;
13319;SDS011;59599;47.608;12.190;2023-04-03T20:00:55;4.83;;;2.37;;
13319;SDS011;59599;47.608;12.190;2023-04-03T20:03:22;3.37;;;2.70;;
13319;SDS011;59599;47.608;12.190;2023-04-03T20:05:47;3.77;;;2.37;;
13319;SDS011;59599;47.608;12.190;2023-04-03T20:08:13;4.80;;;2.47;;
13319;SDS011;59599;47.608;12.190;2023-04-03T20:10:39;2.97;;;2.50;;
13319;SDS011;59599;47.608;12.190;2023-04-03T20:13:06;4.33;;;2.60;;
13319;SDS011;59599;47.608;12.190;2023-04-03T20:15:34;4.20;;;2.40;;
13319;SDS011;59599;47.608;12.190;2023-04-03T20:18:07;4.10;;;2.23;;
13319;SDS011;59599;47.608;12.190;2023-04-03T20:20:34;3.70;;;2.40;;